sensor_id;sensor_type;location;lat;lon;timestamp;P1;durP1;ratioP1;P2;durP2;ratioP2
21036;SDS011;10677;50.942;4.028;2022-10-20T00:00:22;22.10;;;13.15;;
21036;SDS011;10677;50.942;4.028;2022-10-20T00:02:47;22.70;;;12.95;;
21036;SDS011;10677;50.942;4.028;2022-10-20T00:05:13;23.48;;;13.65;;
21036;SDS011;10677;50.942;4.028;2022-10-20T00:07:39;22.60;;;13.68;;
21036;SDS011;10677;50.942;4.028;2022-10-20T00:10:05;22.90;;;12.68;;
21036;SDS011;10677;50.942;4.028;2022-10-20T00:12:31;22.13;;;13.35;;
21036;SDS011;10677;50.942;4.028;2022-10-20T00:14:56;20.90;;;12.95;;
21036;SDS011;10677;50.942;4.028;2022-10-20T00:17:22;22.90;;;13.68;;
21036;SDS011;10677;50.942;4.028;2022-10-20T00:19:47;22.02;;;13.13;;
21036;SDS011;10677;50.942;4.028;2022-10-20T00:22:13;26.02;;;13.98;;
21036;SDS011;10677;50.942;4.028;2022-10-20T00:24:39;24.30;;;13.48;;
21036;SDS011;10677;50.942;4.028;2022-10-20T00:27:05;22.23;;;13.50;;
21036;SDS011;10677;50.942;4.028;2022-10-20T00:29:30;19.25;;;13.10;;
21036;SDS011;10677;50.942;4.028;2022-10-20T00:31:56;29.98;;;15.27;;
21036;SDS011;10677;50.942;4.028;2022-10-20T00:34:21;22.67;;;13.77;;
21036;SDS011;10677;50.942;4.028;2022-10-20T00:36:47;26.27;;;14.88;;
21036;SDS011;10677;50.942;4.028;2022-10-20T00:39:13;23.15;;;15.02;;
21036;SDS011;10677;50.942;4.028;2022-10-20T00:41:38;24.35;;;14.07;;
21036;SDS011;10677;50.942;4.028;2022-10-20T00:47:12;23.17;;;14.13;;
21036;SDS011;10677;50.942;4.028;2022-10-20T00:49:41;27.35;;;14.30;;
21036;SDS011;10677;50.942;4.028;2022-10-20T00:52:06;25.90;;;14.25;;
21036;SDS011;10677;50.942;4.028;2022-10-20T00:54:33;25.35;;;14.82;;
21036;SDS011;10677;50.942;4.028;2022-10-20T00:56:59;23.17;;;14.40;;
21036;SDS011;10677;50.942;4.028;2022-10-20T00:59:29;25.25;;;14.30;;
21036;SDS011;10677;50.942;4.028;2022-10-20T01:01:58;25.63;;;14.55;;
21036;SDS011;10677;50.942;4.028;2022-10-20T01:04:26;22.77;;;14.73;;
21036;SDS011;10677;50.942;4.028;2022-10-20T01:06:54;23.95;;;15.15;;
21036;SDS011;10677;50.942;4.028;2022-10-20T01:09:20;24.70;;;14.10;;
21036;SDS011;10677;50.942;4.028;2022-10-20T01:11:49;26.20;;;15.25;;
21036;SDS011;10677;50.942;4.028;2022-10-20T01:28:09;25.50;;;15.68;;
21036;SDS011;10677;50.942;4.028;2022-10-20T01:30:54;28.70;;;15.18;;
21036;SDS011;10677;50.942;4.028;2022-10-20T01:36:04;27.23;;;14.88;;
21036;SDS011;10677;50.942;4.028;2022-10-20T01:41:09;22.83;;;15.50;;
21036;SDS011;10677;50.942;4.028;2022-10-20T01:43:42;23.98;;;14.48;;
21036;SDS011;10677;50.942;4.028;2022-10-20T01:46:11;28.92;;;16.10;;
21036;SDS011;10677;50.942;4.028;2022-10-20T01:48:39;26.42;;;15.93;;
21036;SDS011;10677;50.942;4.028;2022-10-20T01:51:05;28.25;;;15.50;;
21036;SDS011;10677;50.942;4.028;2022-10-20T01:53:32;32.03;;;15.60;;
21036;SDS011;10677;50.942;4.028;2022-10-20T01:55:58;28.67;;;16.52;;
21036;SDS011;10677;50.942;4.028;2022-10-20T02:01:23;25.15;;;14.65;;
21036;SDS011;10677;50.942;4.028;2022-10-20T02:04:05;31.52;;;16.80;;
21036;SDS011;10677;50.942;4.028;2022-10-20T02:06:42;23.48;;;15.77;;
21036;SDS011;10677;50.942;4.028;2022-10-20T02:09:29;25.70;;;15.93;;
21036;SDS011;10677;50.942;4.028;2022-10-20T02:12:03;24.55;;;14.98;;
21036;SDS011;10677;50.942;4.028;2022-10-20T02:14:33;24.10;;;15.13;;
21036;SDS011;10677;50.942;4.028;2022-10-20T02:17:02;26.00;;;14.98;;
21036;SDS011;10677;50.942;4.028;2022-10-20T02:19:32;25.42;;;14.48;;
21036;SDS011;10677;50.942;4.028;2022-10-20T02:22:00;22.42;;;14.43;;
21036;SDS011;10677;50.942;4.028;2022-10-20T02:24:29;25.85;;;15.32;;
21036;SDS011;10677;50.942;4.028;2022-10-20T02:27:00;26.65;;;14.90;;
21036;SDS011;10677;50.942;4.028;2022-10-20T02:29:29;27.85;;;14.32;;
21036;SDS011;10677;50.942;4.028;2022-10-20T02:32:02;21.85;;;14.38;;
21036;SDS011;10677;50.942;4.028;2022-10-20T02:34:28;21.33;;;14.80;;
21036;SDS011;10677;50.942;4.028;2022-10-20T02:36:54;23.25;;;14.45;;
21036;SDS011;10677;50.942;4.028;2022-10-20T02:39:22;22.55;;;14.30;;
21036;SDS011;10677;50.942;4.028;2022-10-20T02:41:47;28.77;;;15.75;;
21036;SDS011;10677;50.942;4.028;2022-10-20T02:44:13;31.23;;;15.85;;
21036;SDS011;10677;50.942;4.028;2022-10-20T02:46:39;31.10;;;16.50;;
21036;SDS011;10677;50.942;4.028;2022-10-20T02:49:04;24.15;;;14.43;;
21036;SDS011;10677;50.942;4.028;2022-10-20T02:51:30;23.92;;;14.45;;
21036;SDS011;10677;50.942;4.028;2022-10-20T02:53:56;25.30;;;15.82;;
21036;SDS011;10677;50.942;4.028;2022-10-20T02:56:21;30.63;;;15.73;;
21036;SDS011;10677;50.942;4.028;2022-10-20T02:58:47;29.20;;;16.10;;
21036;SDS011;10677;50.942;4.028;2022-10-20T03:01:13;28.52;;;16.05;;
21036;SDS011;10677;50.942;4.028;2022-10-20T03:03:39;23.60;;;15.88;;
21036;SDS011;10677;50.942;4.028;2022-10-20T03:06:11;24.75;;;16.10;;
21036;SDS011;10677;50.942;4.028;2022-10-20T03:08:38;30.33;;;16.02;;
21036;SDS011;10677;50.942;4.028;2022-10-20T03:11:04;29.70;;;16.02;;
21036;SDS011;10677;50.942;4.028;2022-10-20T03:13:30;26.95;;;16.58;;
21036;SDS011;10677;50.942;4.028;2022-10-20T03:15:56;26.10;;;16.23;;
21036;SDS011;10677;50.942;4.028;2022-10-20T03:18:21;28.13;;;16.33;;
21036;SDS011;10677;50.942;4.028;2022-10-20T03:20:50;29.73;;;17.30;;
21036;SDS011;10677;50.942;4.028;2022-10-20T03:23:17;24.73;;;15.32;;
21036;SDS011;10677;50.942;4.028;2022-10-20T03:25:43;29.20;;;16.23;;
21036;SDS011;10677;50.942;4.028;2022-10-20T03:28:09;30.70;;;16.98;;
21036;SDS011;10677;50.942;4.028;2022-10-20T03:30:34;34.47;;;18.58;;
21036;SDS011;10677;50.942;4.028;2022-10-20T03:33:00;37.22;;;18.67;;
21036;SDS011;10677;50.942;4.028;2022-10-20T03:35:25;27.42;;;17.15;;
21036;SDS011;10677;50.942;4.028;2022-10-20T03:37:51;27.35;;;15.95;;
21036;SDS011;10677;50.942;4.028;2022-10-20T03:40:17;26.48;;;16.63;;
21036;SDS011;10677;50.942;4.028;2022-10-20T03:42:42;27.13;;;17.02;;
21036;SDS011;10677;50.942;4.028;2022-10-20T03:45:08;30.98;;;16.83;;
21036;SDS011;10677;50.942;4.028;2022-10-20T03:47:34;29.17;;;17.15;;
21036;SDS011;10677;50.942;4.028;2022-10-20T03:50:00;31.65;;;17.85;;
21036;SDS011;10677;50.942;4.028;2022-10-20T03:52:26;29.85;;;18.17;;
21036;SDS011;10677;50.942;4.028;2022-10-20T03:54:52;30.13;;;18.30;;
21036;SDS011;10677;50.942;4.028;2022-10-20T03:57:18;30.55;;;17.52;;
21036;SDS011;10677;50.942;4.028;2022-10-20T03:59:44;27.30;;;16.13;;
21036;SDS011;10677;50.942;4.028;2022-10-20T04:05:10;29.70;;;17.60;;
21036;SDS011;10677;50.942;4.028;2022-10-20T04:07:38;26.98;;;16.23;;
21036;SDS011;10677;50.942;4.028;2022-10-20T04:10:04;27.15;;;16.52;;
21036;SDS011;10677;50.942;4.028;2022-10-20T04:12:30;28.33;;;16.77;;
21036;SDS011;10677;50.942;4.028;2022-10-20T04:14:56;28.02;;;16.95;;
21036;SDS011;10677;50.942;4.028;2022-10-20T04:17:21;26.58;;;15.73;;
21036;SDS011;10677;50.942;4.028;2022-10-20T04:19:47;26.85;;;16.17;;
21036;SDS011;10677;50.942;4.028;2022-10-20T04:22:12;31.10;;;17.83;;
21036;SDS011;10677;50.942;4.028;2022-10-20T04:24:38;27.45;;;16.20;;
21036;SDS011;10677;50.942;4.028;2022-10-20T04:27:04;24.45;;;14.65;;
21036;SDS011;10677;50.942;4.028;2022-10-20T04:29:29;26.15;;;15.73;;
21036;SDS011;10677;50.942;4.028;2022-10-20T04:31:55;24.08;;;16.27;;
21036;SDS011;10677;50.942;4.028;2022-10-20T04:34:21;28.08;;;16.38;;
21036;SDS011;10677;50.942;4.028;2022-10-20T04:36:47;24.38;;;15.18;;
21036;SDS011;10677;50.942;4.028;2022-10-20T04:39:12;25.98;;;16.05;;
21036;SDS011;10677;50.942;4.028;2022-10-20T04:41:38;24.63;;;15.75;;
21036;SDS011;10677;50.942;4.028;2022-10-20T04:44:04;26.55;;;16.58;;
21036;SDS011;10677;50.942;4.028;2022-10-20T04:46:29;26.40;;;15.80;;
21036;SDS011;10677;50.942;4.028;2022-10-20T04:48:55;33.67;;;17.38;;
21036;SDS011;10677;50.942;4.028;2022-10-20T04:51:21;34.53;;;17.20;;
21036;SDS011;10677;50.942;4.028;2022-10-20T04:53:46;32.17;;;17.88;;
21036;SDS011;10677;50.942;4.028;2022-10-20T04:56:13;24.77;;;15.52;;
21036;SDS011;10677;50.942;4.028;2022-10-20T04:58:47;28.73;;;16.35;;
21036;SDS011;10677;50.942;4.028;2022-10-20T05:01:14;27.67;;;16.92;;
21036;SDS011;10677;50.942;4.028;2022-10-20T05:03:39;27.80;;;15.90;;
21036;SDS011;10677;50.942;4.028;2022-10-20T05:06:09;23.88;;;15.40;;
21036;SDS011;10677;50.942;4.028;2022-10-20T05:08:40;25.50;;;15.30;;
21036;SDS011;10677;50.942;4.028;2022-10-20T05:11:07;30.67;;;19.50;;
21036;SDS011;10677;50.942;4.028;2022-10-20T05:13:34;27.35;;;16.15;;
21036;SDS011;10677;50.942;4.028;2022-10-20T05:16:00;26.80;;;16.13;;
21036;SDS011;10677;50.942;4.028;2022-10-20T05:18:27;31.95;;;15.88;;
21036;SDS011;10677;50.942;4.028;2022-10-20T05:20:53;28.23;;;18.05;;
21036;SDS011;10677;50.942;4.028;2022-10-20T05:23:18;24.65;;;15.35;;
21036;SDS011;10677;50.942;4.028;2022-10-20T05:25:44;26.38;;;16.33;;
21036;SDS011;10677;50.942;4.028;2022-10-20T05:28:10;28.05;;;17.08;;
21036;SDS011;10677;50.942;4.028;2022-10-20T05:30:36;31.75;;;16.05;;
21036;SDS011;10677;50.942;4.028;2022-10-20T05:33:02;28.35;;;15.63;;
21036;SDS011;10677;50.942;4.028;2022-10-20T05:35:29;24.38;;;15.18;;
21036;SDS011;10677;50.942;4.028;2022-10-20T05:37:55;31.48;;;14.77;;
21036;SDS011;10677;50.942;4.028;2022-10-20T05:40:21;27.65;;;14.15;;
21036;SDS011;10677;50.942;4.028;2022-10-20T05:42:47;26.38;;;14.52;;
21036;SDS011;10677;50.942;4.028;2022-10-20T05:45:13;29.08;;;16.45;;
21036;SDS011;10677;50.942;4.028;2022-10-20T05:47:39;25.00;;;14.48;;
21036;SDS011;10677;50.942;4.028;2022-10-20T05:50:04;24.85;;;14.98;;
21036;SDS011;10677;50.942;4.028;2022-10-20T05:52:30;26.88;;;14.90;;
21036;SDS011;10677;50.942;4.028;2022-10-20T05:54:56;29.60;;;15.07;;
21036;SDS011;10677;50.942;4.028;2022-10-20T05:57:23;28.25;;;13.57;;
21036;SDS011;10677;50.942;4.028;2022-10-20T05:59:49;26.73;;;14.55;;
21036;SDS011;10677;50.942;4.028;2022-10-20T06:02:14;31.75;;;14.95;;
21036;SDS011;10677;50.942;4.028;2022-10-20T06:04:40;36.05;;;14.95;;
21036;SDS011;10677;50.942;4.028;2022-10-20T06:07:05;29.40;;;14.20;;
21036;SDS011;10677;50.942;4.028;2022-10-20T06:09:33;22.42;;;13.93;;
21036;SDS011;10677;50.942;4.028;2022-10-20T06:12:00;25.10;;;13.27;;
21036;SDS011;10677;50.942;4.028;2022-10-20T06:14:26;22.70;;;13.88;;
21036;SDS011;10677;50.942;4.028;2022-10-20T06:16:52;26.83;;;13.35;;
21036;SDS011;10677;50.942;4.028;2022-10-20T06:19:18;28.38;;;13.55;;
21036;SDS011;10677;50.942;4.028;2022-10-20T06:21:44;24.48;;;13.35;;
21036;SDS011;10677;50.942;4.028;2022-10-20T06:24:10;27.83;;;13.27;;
21036;SDS011;10677;50.942;4.028;2022-10-20T06:26:36;24.98;;;12.52;;
21036;SDS011;10677;50.942;4.028;2022-10-20T06:29:04;29.25;;;13.52;;
21036;SDS011;10677;50.942;4.028;2022-10-20T06:31:33;27.83;;;13.43;;
21036;SDS011;10677;50.942;4.028;2022-10-20T06:34:03;22.75;;;13.13;;
21036;SDS011;10677;50.942;4.028;2022-10-20T06:36:35;21.10;;;11.75;;
21036;SDS011;10677;50.942;4.028;2022-10-20T06:39:02;27.02;;;12.52;;
21036;SDS011;10677;50.942;4.028;2022-10-20T06:41:29;25.35;;;11.82;;
21036;SDS011;10677;50.942;4.028;2022-10-20T06:43:56;22.05;;;12.85;;
21036;SDS011;10677;50.942;4.028;2022-10-20T06:46:23;18.00;;;10.93;;
21036;SDS011;10677;50.942;4.028;2022-10-20T06:48:53;20.90;;;12.23;;
21036;SDS011;10677;50.942;4.028;2022-10-20T06:51:19;19.67;;;10.10;;
21036;SDS011;10677;50.942;4.028;2022-10-20T06:53:48;18.05;;;10.85;;
21036;SDS011;10677;50.942;4.028;2022-10-20T06:56:18;18.17;;;11.82;;
21036;SDS011;10677;50.942;4.028;2022-10-20T06:58:47;18.17;;;11.13;;
21036;SDS011;10677;50.942;4.028;2022-10-20T07:01:18;14.30;;;10.43;;
21036;SDS011;10677;50.942;4.028;2022-10-20T07:03:47;14.68;;;9.70;;
21036;SDS011;10677;50.942;4.028;2022-10-20T07:06:14;19.73;;;10.23;;
21036;SDS011;10677;50.942;4.028;2022-10-20T07:08:41;18.35;;;10.20;;
21036;SDS011;10677;50.942;4.028;2022-10-20T07:11:11;17.13;;;10.43;;
21036;SDS011;10677;50.942;4.028;2022-10-20T07:13:39;15.98;;;9.63;;
21036;SDS011;10677;50.942;4.028;2022-10-20T07:16:05;17.08;;;9.25;;
21036;SDS011;10677;50.942;4.028;2022-10-20T07:18:32;17.42;;;9.82;;
21036;SDS011;10677;50.942;4.028;2022-10-20T07:21:00;17.70;;;9.80;;
21036;SDS011;10677;50.942;4.028;2022-10-20T07:23:28;14.05;;;9.82;;
21036;SDS011;10677;50.942;4.028;2022-10-20T07:26:01;20.75;;;10.45;;
21036;SDS011;10677;50.942;4.028;2022-10-20T07:28:28;16.13;;;10.20;;
21036;SDS011;10677;50.942;4.028;2022-10-20T07:30:54;17.88;;;9.88;;
21036;SDS011;10677;50.942;4.028;2022-10-20T07:33:20;15.43;;;10.13;;
21036;SDS011;10677;50.942;4.028;2022-10-20T07:35:46;13.82;;;10.00;;
21036;SDS011;10677;50.942;4.028;2022-10-20T07:38:12;20.95;;;11.02;;
21036;SDS011;10677;50.942;4.028;2022-10-20T07:40:38;20.98;;;13.60;;
21036;SDS011;10677;50.942;4.028;2022-10-20T07:43:03;15.60;;;10.10;;
21036;SDS011;10677;50.942;4.028;2022-10-20T07:45:29;19.73;;;10.45;;
21036;SDS011;10677;50.942;4.028;2022-10-20T07:47:54;19.17;;;10.63;;
21036;SDS011;10677;50.942;4.028;2022-10-20T07:50:20;15.43;;;9.45;;
21036;SDS011;10677;50.942;4.028;2022-10-20T07:52:49;16.10;;;10.23;;
21036;SDS011;10677;50.942;4.028;2022-10-20T07:55:16;20.38;;;10.18;;
21036;SDS011;10677;50.942;4.028;2022-10-20T07:57:41;14.95;;;10.07;;
21036;SDS011;10677;50.942;4.028;2022-10-20T08:00:07;17.73;;;10.23;;
21036;SDS011;10677;50.942;4.028;2022-10-20T08:02:33;16.08;;;10.68;;
21036;SDS011;10677;50.942;4.028;2022-10-20T08:04:59;17.02;;;10.23;;
21036;SDS011;10677;50.942;4.028;2022-10-20T08:07:24;17.65;;;11.00;;
21036;SDS011;10677;50.942;4.028;2022-10-20T08:09:53;19.05;;;10.95;;
21036;SDS011;10677;50.942;4.028;2022-10-20T08:12:19;17.17;;;10.60;;
21036;SDS011;10677;50.942;4.028;2022-10-20T08:14:44;29.38;;;12.07;;
21036;SDS011;10677;50.942;4.028;2022-10-20T08:17:10;17.90;;;11.25;;
21036;SDS011;10677;50.942;4.028;2022-10-20T08:19:35;21.38;;;11.43;;
21036;SDS011;10677;50.942;4.028;2022-10-20T08:22:01;19.88;;;12.07;;
21036;SDS011;10677;50.942;4.028;2022-10-20T08:24:27;20.88;;;12.25;;
21036;SDS011;10677;50.942;4.028;2022-10-20T08:26:53;19.40;;;11.77;;
21036;SDS011;10677;50.942;4.028;2022-10-20T08:29:18;19.60;;;12.23;;
21036;SDS011;10677;50.942;4.028;2022-10-20T08:31:44;22.85;;;12.00;;
21036;SDS011;10677;50.942;4.028;2022-10-20T08:34:10;26.60;;;13.40;;
21036;SDS011;10677;50.942;4.028;2022-10-20T08:36:35;22.15;;;12.52;;
21036;SDS011;10677;50.942;4.028;2022-10-20T08:39:02;25.33;;;13.75;;
21036;SDS011;10677;50.942;4.028;2022-10-20T08:41:29;22.08;;;13.15;;
21036;SDS011;10677;50.942;4.028;2022-10-20T08:43:58;22.95;;;13.63;;
21036;SDS011;10677;50.942;4.028;2022-10-20T08:46:35;24.70;;;13.35;;
21036;SDS011;10677;50.942;4.028;2022-10-20T08:49:04;23.90;;;13.60;;
21036;SDS011;10677;50.942;4.028;2022-10-20T08:51:35;18.58;;;12.30;;
21036;SDS011;10677;50.942;4.028;2022-10-20T08:54:02;20.92;;;12.93;;
21036;SDS011;10677;50.942;4.028;2022-10-20T08:56:35;21.58;;;12.52;;
21036;SDS011;10677;50.942;4.028;2022-10-20T08:59:00;20.80;;;13.60;;
21036;SDS011;10677;50.942;4.028;2022-10-20T09:01:33;29.55;;;14.48;;
21036;SDS011;10677;50.942;4.028;2022-10-20T09:04:04;23.83;;;13.05;;
21036;SDS011;10677;50.942;4.028;2022-10-20T09:06:40;23.00;;;12.23;;
21036;SDS011;10677;50.942;4.028;2022-10-20T09:09:13;21.00;;;13.48;;
21036;SDS011;10677;50.942;4.028;2022-10-20T09:11:41;24.95;;;13.05;;
21036;SDS011;10677;50.942;4.028;2022-10-20T09:14:09;23.23;;;13.48;;
21036;SDS011;10677;50.942;4.028;2022-10-20T09:16:36;21.23;;;13.55;;
21036;SDS011;10677;50.942;4.028;2022-10-20T09:19:05;20.83;;;12.38;;
21036;SDS011;10677;50.942;4.028;2022-10-20T09:21:40;26.75;;;13.00;;
21036;SDS011;10677;50.942;4.028;2022-10-20T09:24:07;23.75;;;13.88;;
21036;SDS011;10677;50.942;4.028;2022-10-20T09:26:34;21.33;;;13.65;;
21036;SDS011;10677;50.942;4.028;2022-10-20T09:29:15;21.33;;;13.20;;
21036;SDS011;10677;50.942;4.028;2022-10-20T09:31:44;25.15;;;13.65;;
21036;SDS011;10677;50.942;4.028;2022-10-20T09:34:45;18.83;;;12.70;;
21036;SDS011;10677;50.942;4.028;2022-10-20T09:37:09;23.90;;;14.30;;
21036;SDS011;10677;50.942;4.028;2022-10-20T09:39:41;26.30;;;13.65;;
21036;SDS011;10677;50.942;4.028;2022-10-20T09:45:04;20.85;;;13.68;;
21036;SDS011;10677;50.942;4.028;2022-10-20T09:47:32;21.27;;;14.02;;
21036;SDS011;10677;50.942;4.028;2022-10-20T09:50:05;19.85;;;13.05;;
21036;SDS011;10677;50.942;4.028;2022-10-20T09:52:33;22.67;;;13.30;;
21036;SDS011;10677;50.942;4.028;2022-10-20T09:57:50;20.48;;;13.15;;
21036;SDS011;10677;50.942;4.028;2022-10-20T10:00:22;22.58;;;12.57;;
21036;SDS011;10677;50.942;4.028;2022-10-20T10:06:18;20.80;;;11.90;;
21036;SDS011;10677;50.942;4.028;2022-10-20T10:09:20;21.63;;;11.98;;
21036;SDS011;10677;50.942;4.028;2022-10-20T10:12:00;21.30;;;12.10;;
21036;SDS011;10677;50.942;4.028;2022-10-20T10:14:28;18.98;;;11.45;;
21036;SDS011;10677;50.942;4.028;2022-10-20T10:16:57;19.08;;;10.98;;
21036;SDS011;10677;50.942;4.028;2022-10-20T10:19:27;22.15;;;10.55;;
21036;SDS011;10677;50.942;4.028;2022-10-20T10:21:56;17.48;;;10.20;;
21036;SDS011;10677;50.942;4.028;2022-10-20T10:24:44;18.70;;;10.75;;
21036;SDS011;10677;50.942;4.028;2022-10-20T10:27:28;18.10;;;10.30;;
21036;SDS011;10677;50.942;4.028;2022-10-20T10:29:56;21.17;;;11.10;;
21036;SDS011;10677;50.942;4.028;2022-10-20T10:32:54;16.60;;;9.18;;
21036;SDS011;10677;50.942;4.028;2022-10-20T10:35:26;15.95;;;9.45;;
21036;SDS011;10677;50.942;4.028;2022-10-20T10:37:56;15.30;;;9.20;;
21036;SDS011;10677;50.942;4.028;2022-10-20T10:40:29;19.58;;;10.48;;
21036;SDS011;10677;50.942;4.028;2022-10-20T10:54:22;13.88;;;9.30;;
21036;SDS011;10677;50.942;4.028;2022-10-20T10:56:56;17.35;;;8.35;;
21036;SDS011;10677;50.942;4.028;2022-10-20T11:16:00;13.15;;;6.60;;
21036;SDS011;10677;50.942;4.028;2022-10-20T11:27:02;9.70;;;6.18;;
21036;SDS011;10677;50.942;4.028;2022-10-20T11:29:35;11.82;;;5.82;;
21036;SDS011;10677;50.942;4.028;2022-10-20T11:32:38;13.50;;;5.75;;
21036;SDS011;10677;50.942;4.028;2022-10-20T11:37:47;11.35;;;5.68;;
21036;SDS011;10677;50.942;4.028;2022-10-20T11:48:16;13.63;;;5.97;;
21036;SDS011;10677;50.942;4.028;2022-10-20T11:53:42;12.50;;;5.53;;
21036;SDS011;10677;50.942;4.028;2022-10-20T11:56:37;11.05;;;5.20;;
21036;SDS011;10677;50.942;4.028;2022-10-20T12:05:22;11.75;;;4.90;;
21036;SDS011;10677;50.942;4.028;2022-10-20T12:11:29;13.07;;;4.43;;
21036;SDS011;10677;50.942;4.028;2022-10-20T12:19:23;11.43;;;3.80;;
21036;SDS011;10677;50.942;4.028;2022-10-20T12:21:56;7.50;;;3.40;;
21036;SDS011;10677;50.942;4.028;2022-10-20T12:38:12;8.40;;;2.40;;
21036;SDS011;10677;50.942;4.028;2022-10-20T12:40:41;5.28;;;2.20;;
21036;SDS011;10677;50.942;4.028;2022-10-20T12:43:47;8.45;;;2.60;;
21036;SDS011;10677;50.942;4.028;2022-10-20T12:46:17;4.95;;;2.45;;
21036;SDS011;10677;50.942;4.028;2022-10-20T12:48:51;5.97;;;2.45;;
21036;SDS011;10677;50.942;4.028;2022-10-20T12:51:31;5.82;;;2.17;;
21036;SDS011;10677;50.942;4.028;2022-10-20T12:54:15;8.73;;;2.90;;
21036;SDS011;10677;50.942;4.028;2022-10-20T12:56:55;6.80;;;2.50;;
21036;SDS011;10677;50.942;4.028;2022-10-20T13:15:33;7.07;;;2.78;;
21036;SDS011;10677;50.942;4.028;2022-10-20T13:23:46;6.50;;;2.22;;
21036;SDS011;10677;50.942;4.028;2022-10-20T13:26:25;6.80;;;2.20;;
21036;SDS011;10677;50.942;4.028;2022-10-20T13:28:55;5.70;;;2.00;;
21036;SDS011;10677;50.942;4.028;2022-10-20T13:34:26;8.15;;;2.60;;
21036;SDS011;10677;50.942;4.028;2022-10-20T13:40:19;6.68;;;2.22;;
21036;SDS011;10677;50.942;4.028;2022-10-20T13:43:03;5.60;;;2.03;;
21036;SDS011;10677;50.942;4.028;2022-10-20T13:51:12;5.93;;;1.80;;
21036;SDS011;10677;50.942;4.028;2022-10-20T13:54:02;3.38;;;1.40;;
21036;SDS011;10677;50.942;4.028;2022-10-20T13:56:36;6.15;;;2.00;;
21036;SDS011;10677;50.942;4.028;2022-10-20T14:01:44;7.47;;;1.80;;
21036;SDS011;10677;50.942;4.028;2022-10-20T14:07:00;7.07;;;2.00;;
21036;SDS011;10677;50.942;4.028;2022-10-20T14:09:27;4.90;;;1.70;;
21036;SDS011;10677;50.942;4.028;2022-10-20T14:11:55;6.97;;;1.80;;
21036;SDS011;10677;50.942;4.028;2022-10-20T14:14:25;6.18;;;1.90;;
21036;SDS011;10677;50.942;4.028;2022-10-20T14:17:06;6.72;;;1.80;;
21036;SDS011;10677;50.942;4.028;2022-10-20T14:19:32;7.47;;;2.40;;
21036;SDS011;10677;50.942;4.028;2022-10-20T14:22:09;6.53;;;2.08;;
21036;SDS011;10677;50.942;4.028;2022-10-20T14:24:42;3.88;;;1.80;;
21036;SDS011;10677;50.942;4.028;2022-10-20T14:27:14;7.45;;;2.10;;
21036;SDS011;10677;50.942;4.028;2022-10-20T14:29:45;5.70;;;2.20;;
21036;SDS011;10677;50.942;4.028;2022-10-20T14:32:16;5.70;;;1.52;;
21036;SDS011;10677;50.942;4.028;2022-10-20T14:41:20;8.70;;;1.63;;
21036;SDS011;10677;50.942;4.028;2022-10-20T14:43:58;4.93;;;2.10;;
21036;SDS011;10677;50.942;4.028;2022-10-20T14:48:57;6.28;;;1.80;;
21036;SDS011;10677;50.942;4.028;2022-10-20T14:51:35;5.97;;;1.98;;
21036;SDS011;10677;50.942;4.028;2022-10-20T14:54:15;5.65;;;1.65;;
21036;SDS011;10677;50.942;4.028;2022-10-20T14:56:44;4.55;;;2.00;;
21036;SDS011;10677;50.942;4.028;2022-10-20T14:59:13;7.97;;;2.25;;
21036;SDS011;10677;50.942;4.028;2022-10-20T15:01:39;6.38;;;1.90;;
21036;SDS011;10677;50.942;4.028;2022-10-20T15:06:47;7.63;;;1.85;;
21036;SDS011;10677;50.942;4.028;2022-10-20T15:09:17;8.32;;;2.13;;
21036;SDS011;10677;50.942;4.028;2022-10-20T15:11:54;5.78;;;2.00;;
21036;SDS011;10677;50.942;4.028;2022-10-20T15:14:20;6.00;;;2.28;;
21036;SDS011;10677;50.942;4.028;2022-10-20T15:16:46;11.02;;;2.60;;
21036;SDS011;10677;50.942;4.028;2022-10-20T15:21:48;6.93;;;2.35;;
21036;SDS011;10677;50.942;4.028;2022-10-20T15:24:17;9.48;;;2.55;;
21036;SDS011;10677;50.942;4.028;2022-10-20T15:26:42;6.30;;;2.50;;
21036;SDS011;10677;50.942;4.028;2022-10-20T15:29:08;10.25;;;2.65;;
21036;SDS011;10677;50.942;4.028;2022-10-20T15:31:34;8.02;;;2.53;;
21036;SDS011;10677;50.942;4.028;2022-10-20T15:34:00;6.57;;;2.40;;
21036;SDS011;10677;50.942;4.028;2022-10-20T15:36:29;9.65;;;2.47;;
21036;SDS011;10677;50.942;4.028;2022-10-20T15:38:57;8.68;;;2.75;;
21036;SDS011;10677;50.942;4.028;2022-10-20T15:41:24;8.00;;;3.13;;
21036;SDS011;10677;50.942;4.028;2022-10-20T15:43:54;8.00;;;2.75;;
21036;SDS011;10677;50.942;4.028;2022-10-20T15:46:21;9.88;;;3.22;;
21036;SDS011;10677;50.942;4.028;2022-10-20T15:48:46;9.75;;;3.53;;
21036;SDS011;10677;50.942;4.028;2022-10-20T15:51:25;9.07;;;3.05;;
21036;SDS011;10677;50.942;4.028;2022-10-20T15:53:54;9.93;;;3.17;;
21036;SDS011;10677;50.942;4.028;2022-10-20T15:56:20;10.60;;;3.10;;
21036;SDS011;10677;50.942;4.028;2022-10-20T15:58:46;7.28;;;2.50;;
21036;SDS011;10677;50.942;4.028;2022-10-20T16:01:14;9.80;;;2.90;;
21036;SDS011;10677;50.942;4.028;2022-10-20T16:03:41;8.80;;;2.40;;
21036;SDS011;10677;50.942;4.028;2022-10-20T16:06:08;8.13;;;2.75;;
21036;SDS011;10677;50.942;4.028;2022-10-20T16:08:34;7.05;;;2.60;;
21036;SDS011;10677;50.942;4.028;2022-10-20T16:11:02;8.07;;;2.83;;
21036;SDS011;10677;50.942;4.028;2022-10-20T16:13:30;7.40;;;3.47;;
21036;SDS011;10677;50.942;4.028;2022-10-20T16:15:56;11.05;;;3.40;;
21036;SDS011;10677;50.942;4.028;2022-10-20T16:18:22;11.35;;;4.90;;
21036;SDS011;10677;50.942;4.028;2022-10-20T16:20:51;9.70;;;5.95;;
21036;SDS011;10677;50.942;4.028;2022-10-20T16:23:17;7.55;;;3.90;;
21036;SDS011;10677;50.942;4.028;2022-10-20T16:25:42;7.32;;;4.22;;
21036;SDS011;10677;50.942;4.028;2022-10-20T16:28:09;11.85;;;4.43;;
21036;SDS011;10677;50.942;4.028;2022-10-20T16:30:34;13.63;;;4.90;;
21036;SDS011;10677;50.942;4.028;2022-10-20T16:33:00;9.43;;;3.83;;
21036;SDS011;10677;50.942;4.028;2022-10-20T16:35:26;9.70;;;4.53;;
21036;SDS011;10677;50.942;4.028;2022-10-20T16:37:52;13.75;;;4.28;;
21036;SDS011;10677;50.942;4.028;2022-10-20T16:40:17;10.07;;;4.25;;
21036;SDS011;10677;50.942;4.028;2022-10-20T16:42:43;14.82;;;5.10;;
21036;SDS011;10677;50.942;4.028;2022-10-20T16:45:09;11.43;;;4.63;;
21036;SDS011;10677;50.942;4.028;2022-10-20T16:47:35;21.08;;;8.30;;
21036;SDS011;10677;50.942;4.028;2022-10-20T16:50:01;12.80;;;5.13;;
21036;SDS011;10677;50.942;4.028;2022-10-20T16:52:27;16.48;;;5.40;;
21036;SDS011;10677;50.942;4.028;2022-10-20T16:54:52;12.60;;;5.00;;
21036;SDS011;10677;50.942;4.028;2022-10-20T16:57:18;10.32;;;4.75;;
21036;SDS011;10677;50.942;4.028;2022-10-20T16:59:44;12.65;;;4.50;;
21036;SDS011;10677;50.942;4.028;2022-10-20T17:02:14;9.80;;;4.28;;
21036;SDS011;10677;50.942;4.028;2022-10-20T17:04:40;9.75;;;4.55;;
21036;SDS011;10677;50.942;4.028;2022-10-20T17:07:06;10.40;;;4.53;;
21036;SDS011;10677;50.942;4.028;2022-10-20T17:09:33;12.02;;;4.78;;
21036;SDS011;10677;50.942;4.028;2022-10-20T17:11:58;13.50;;;4.43;;
21036;SDS011;10677;50.942;4.028;2022-10-20T17:14:24;7.25;;;3.95;;
21036;SDS011;10677;50.942;4.028;2022-10-20T17:16:50;11.35;;;3.75;;
21036;SDS011;10677;50.942;4.028;2022-10-20T17:19:16;8.75;;;4.25;;
21036;SDS011;10677;50.942;4.028;2022-10-20T17:21:42;11.57;;;5.18;;
21036;SDS011;10677;50.942;4.028;2022-10-20T17:24:11;12.65;;;6.32;;
21036;SDS011;10677;50.942;4.028;2022-10-20T17:26:37;14.10;;;7.95;;